sensor_id;sensor_type;location;lat;lon;timestamp;P1;durP1;ratioP1;P2;durP2;ratioP2
38725;SDS011;24474;48.906;8.808;2023-02-19T00:02:04;6.00;;;5.35;;
38725;SDS011;24474;48.906;8.808;2023-02-19T00:04:30;5.88;;;4.82;;
38725;SDS011;24474;48.906;8.808;2023-02-19T00:06:58;6.18;;;5.10;;
38725;SDS011;24474;48.906;8.808;2023-02-19T00:09:25;5.80;;;4.50;;
38725;SDS011;24474;48.906;8.808;2023-02-19T00:11:50;6.85;;;5.35;;
38725;SDS011;24474;48.906;8.808;2023-02-19T00:14:18;6.28;;;5.03;;
38725;SDS011;24474;48.906;8.808;2023-02-19T00:16:45;4.72;;;4.15;;
38725;SDS011;24474;48.906;8.808;2023-02-19T00:19:12;5.47;;;4.95;;
38725;SDS011;24474;48.906;8.808;2023-02-19T00:21:41;6.07;;;5.00;;
38725;SDS011;24474;48.906;8.808;2023-02-19T00:24:09;5.65;;;4.70;;
38725;SDS011;24474;48.906;8.808;2023-02-19T00:26:39;5.03;;;4.53;;
38725;SDS011;24474;48.906;8.808;2023-02-19T00:29:08;5.28;;;4.57;;
38725;SDS011;24474;48.906;8.808;2023-02-19T00:31:39;6.38;;;5.20;;
38725;SDS011;24474;48.906;8.808;2023-02-19T00:34:06;4.38;;;3.97;;
38725;SDS011;24474;48.906;8.808;2023-02-19T00:36:35;5.45;;;4.43;;
38725;SDS011;24474;48.906;8.808;2023-02-19T00:39:04;5.18;;;4.50;;
38725;SDS011;24474;48.906;8.808;2023-02-19T00:41:32;6.22;;;4.47;;
38725;SDS011;24474;48.906;8.808;2023-02-19T00:44:02;6.00;;;5.00;;
38725;SDS011;24474;48.906;8.808;2023-02-19T00:46:38;5.40;;;4.40;;
38725;SDS011;24474;48.906;8.808;2023-02-19T00:49:15;6.22;;;4.50;;
38725;SDS011;24474;48.906;8.808;2023-02-19T00:51:48;5.57;;;4.95;;
38725;SDS011;24474;48.906;8.808;2023-02-19T00:54:18;7.07;;;4.88;;
38725;SDS011;24474;48.906;8.808;2023-02-19T00:56:45;6.25;;;4.75;;
38725;SDS011;24474;48.906;8.808;2023-02-19T00:59:12;5.13;;;4.45;;
38725;SDS011;24474;48.906;8.808;2023-02-19T01:01:45;5.32;;;4.50;;
38725;SDS011;24474;48.906;8.808;2023-02-19T01:04:16;4.97;;;4.10;;
38725;SDS011;24474;48.906;8.808;2023-02-19T01:06:44;4.53;;;4.07;;
38725;SDS011;24474;48.906;8.808;2023-02-19T01:09:11;4.57;;;4.10;;
38725;SDS011;24474;48.906;8.808;2023-02-19T01:11:39;5.03;;;3.58;;
38725;SDS011;24474;48.906;8.808;2023-02-19T01:14:05;5.00;;;4.03;;
38725;SDS011;24474;48.906;8.808;2023-02-19T01:16:32;4.55;;;3.47;;
38725;SDS011;24474;48.906;8.808;2023-02-19T01:18:58;4.97;;;3.83;;
38725;SDS011;24474;48.906;8.808;2023-02-19T01:21:25;3.53;;;3.22;;
38725;SDS011;24474;48.906;8.808;2023-02-19T01:23:55;3.33;;;2.83;;
38725;SDS011;24474;48.906;8.808;2023-02-19T01:26:24;3.10;;;2.80;;
38725;SDS011;24474;48.906;8.808;2023-02-19T01:28:52;3.90;;;3.50;;
38725;SDS011;24474;48.906;8.808;2023-02-19T01:31:20;3.78;;;3.22;;
38725;SDS011;24474;48.906;8.808;2023-02-19T01:33:49;3.45;;;2.95;;
38725;SDS011;24474;48.906;8.808;2023-02-19T01:36:22;4.40;;;3.20;;
38725;SDS011;24474;48.906;8.808;2023-02-19T01:38:50;5.45;;;3.58;;
38725;SDS011;24474;48.906;8.808;2023-02-19T01:41:25;4.95;;;4.15;;
38725;SDS011;24474;48.906;8.808;2023-02-19T01:44:04;5.43;;;4.00;;
38725;SDS011;24474;48.906;8.808;2023-02-19T01:46:33;8.13;;;5.40;;
38725;SDS011;24474;48.906;8.808;2023-02-19T01:49:17;7.68;;;5.00;;
38725;SDS011;24474;48.906;8.808;2023-02-19T01:54:42;4.93;;;3.47;;
38725;SDS011;24474;48.906;8.808;2023-02-19T01:57:10;3.67;;;2.83;;
38725;SDS011;24474;48.906;8.808;2023-02-19T01:59:40;3.90;;;3.28;;
38725;SDS011;24474;48.906;8.808;2023-02-19T02:02:08;3.85;;;3.35;;
38725;SDS011;24474;48.906;8.808;2023-02-19T02:04:36;4.15;;;3.55;;
38725;SDS011;24474;48.906;8.808;2023-02-19T02:07:03;3.50;;;2.95;;
38725;SDS011;24474;48.906;8.808;2023-02-19T02:09:51;3.95;;;3.30;;
38725;SDS011;24474;48.906;8.808;2023-02-19T02:12:45;3.78;;;3.00;;
38725;SDS011;24474;48.906;8.808;2023-02-19T02:15:17;3.70;;;3.28;;
38725;SDS011;24474;48.906;8.808;2023-02-19T02:17:53;4.28;;;3.65;;
38725;SDS011;24474;48.906;8.808;2023-02-19T02:20:50;4.30;;;3.45;;
38725;SDS011;24474;48.906;8.808;2023-02-19T02:23:39;4.75;;;3.67;;
38725;SDS011;24474;48.906;8.808;2023-02-19T02:26:43;4.90;;;3.80;;
38725;SDS011;24474;48.906;8.808;2023-02-19T02:32:38;6.20;;;3.75;;
38725;SDS011;24474;48.906;8.808;2023-02-19T02:35:23;4.03;;;2.75;;
38725;SDS011;24474;48.906;8.808;2023-02-19T02:37:56;2.83;;;1.90;;
38725;SDS011;24474;48.906;8.808;2023-02-19T02:40:28;2.40;;;1.80;;
38725;SDS011;24474;48.906;8.808;2023-02-19T02:42:56;2.75;;;2.03;;
38725;SDS011;24474;48.906;8.808;2023-02-19T02:45:25;2.63;;;2.15;;
38725;SDS011;24474;48.906;8.808;2023-02-19T02:53:56;3.40;;;1.90;;
38725;SDS011;24474;48.906;8.808;2023-02-19T02:56:35;2.65;;;1.75;;
38725;SDS011;24474;48.906;8.808;2023-02-19T02:59:04;2.45;;;1.70;;
38725;SDS011;24474;48.906;8.808;2023-02-19T03:01:44;2.50;;;1.77;;
38725;SDS011;24474;48.906;8.808;2023-02-19T03:07:49;2.83;;;1.98;;
38725;SDS011;24474;48.906;8.808;2023-02-19T03:11:04;1.50;;;1.38;;
38725;SDS011;24474;48.906;8.808;2023-02-19T03:13:46;3.17;;;1.65;;
38725;SDS011;24474;48.906;8.808;2023-02-19T03:16:35;2.13;;;1.75;;
38725;SDS011;24474;48.906;8.808;2023-02-19T03:19:26;2.75;;;2.08;;
38725;SDS011;24474;48.906;8.808;2023-02-19T03:22:05;2.55;;;1.83;;
38725;SDS011;24474;48.906;8.808;2023-02-19T03:24:44;2.10;;;1.70;;
38725;SDS011;24474;48.906;8.808;2023-02-19T03:27:37;2.20;;;1.60;;
38725;SDS011;24474;48.906;8.808;2023-02-19T03:30:08;2.80;;;2.00;;
38725;SDS011;24474;48.906;8.808;2023-02-19T03:35:29;4.13;;;2.13;;
38725;SDS011;24474;48.906;8.808;2023-02-19T03:38:16;2.22;;;1.85;;
38725;SDS011;24474;48.906;8.808;2023-02-19T03:55:31;3.70;;;1.90;;
38725;SDS011;24474;48.906;8.808;2023-02-19T03:58:22;2.65;;;1.75;;
38725;SDS011;24474;48.906;8.808;2023-02-19T04:01:01;2.25;;;1.73;;
38725;SDS011;24474;48.906;8.808;2023-02-19T04:03:40;1.55;;;1.45;;
38725;SDS011;24474;48.906;8.808;2023-02-19T04:06:18;3.00;;;1.50;;
38725;SDS011;24474;48.906;8.808;2023-02-19T04:08:50;2.97;;;1.95;;
38725;SDS011;24474;48.906;8.808;2023-02-19T04:11:18;2.75;;;1.50;;
38725;SDS011;24474;48.906;8.808;2023-02-19T04:14:10;1.67;;;1.40;;
38725;SDS011;24474;48.906;8.808;2023-02-19T04:16:43;3.63;;;1.52;;
38725;SDS011;24474;48.906;8.808;2023-02-19T04:21:41;1.60;;;1.50;;
38725;SDS011;24474;48.906;8.808;2023-02-19T04:24:10;3.13;;;1.33;;
38725;SDS011;24474;48.906;8.808;2023-02-19T04:26:40;2.33;;;1.52;;
38725;SDS011;24474;48.906;8.808;2023-02-19T04:29:08;1.55;;;1.38;;
38725;SDS011;24474;48.906;8.808;2023-02-19T04:31:36;2.13;;;1.30;;
38725;SDS011;24474;48.906;8.808;2023-02-19T04:34:04;2.75;;;1.20;;
38725;SDS011;24474;48.906;8.808;2023-02-19T04:36:30;2.03;;;1.13;;
38725;SDS011;24474;48.906;8.808;2023-02-19T04:38:57;1.77;;;1.10;;
38725;SDS011;24474;48.906;8.808;2023-02-19T04:41:24;1.40;;;0.90;;
38725;SDS011;24474;48.906;8.808;2023-02-19T04:43:50;1.58;;;0.90;;
38725;SDS011;24474;48.906;8.808;2023-02-19T04:46:17;1.48;;;0.90;;
38725;SDS011;24474;48.906;8.808;2023-02-19T04:48:43;1.63;;;0.90;;
38725;SDS011;24474;48.906;8.808;2023-02-19T04:51:08;1.02;;;0.82;;
38725;SDS011;24474;48.906;8.808;2023-02-19T04:53:34;0.80;;;0.80;;
38725;SDS011;24474;48.906;8.808;2023-02-19T04:56:07;1.20;;;0.90;;
38725;SDS011;24474;48.906;8.808;2023-02-19T04:58:35;1.00;;;0.90;;
38725;SDS011;24474;48.906;8.808;2023-02-19T05:01:00;0.98;;;0.98;;
38725;SDS011;24474;48.906;8.808;2023-02-19T05:03:26;1.83;;;1.10;;
38725;SDS011;24474;48.906;8.808;2023-02-19T05:05:53;1.20;;;1.10;;
38725;SDS011;24474;48.906;8.808;2023-02-19T05:08:21;2.30;;;1.10;;
38725;SDS011;24474;48.906;8.808;2023-02-19T05:10:48;2.28;;;1.20;;
38725;SDS011;24474;48.906;8.808;2023-02-19T05:13:15;1.25;;;1.10;;
38725;SDS011;24474;48.906;8.808;2023-02-19T05:15:52;0.98;;;0.98;;
38725;SDS011;24474;48.906;8.808;2023-02-19T05:18:23;1.52;;;0.95;;
38725;SDS011;24474;48.906;8.808;2023-02-19T05:20:49;1.30;;;1.20;;
38725;SDS011;24474;48.906;8.808;2023-02-19T05:23:17;2.05;;;1.13;;
38725;SDS011;24474;48.906;8.808;2023-02-19T05:25:44;1.10;;;1.00;;
38725;SDS011;24474;48.906;8.808;2023-02-19T05:28:12;1.23;;;0.90;;
38725;SDS011;24474;48.906;8.808;2023-02-19T05:30:47;1.73;;;1.10;;
38725;SDS011;24474;48.906;8.808;2023-02-19T05:33:16;0.80;;;0.80;;
38725;SDS011;24474;48.906;8.808;2023-02-19T05:35:45;1.00;;;0.90;;
38725;SDS011;24474;48.906;8.808;2023-02-19T05:38:16;0.68;;;0.68;;
38725;SDS011;24474;48.906;8.808;2023-02-19T05:40:43;0.60;;;0.60;;
38725;SDS011;24474;48.906;8.808;2023-02-19T05:43:11;1.00;;;0.90;;
38725;SDS011;24474;48.906;8.808;2023-02-19T05:45:38;0.80;;;0.80;;
38725;SDS011;24474;48.906;8.808;2023-02-19T05:48:06;1.88;;;1.00;;
38725;SDS011;24474;48.906;8.808;2023-02-19T05:50:34;1.42;;;1.15;;
38725;SDS011;24474;48.906;8.808;2023-02-19T05:53:02;1.90;;;1.10;;
38725;SDS011;24474;48.906;8.808;2023-02-19T05:55:33;1.33;;;1.20;;
38725;SDS011;24474;48.906;8.808;2023-02-19T05:58:00;1.60;;;1.50;;
38725;SDS011;24474;48.906;8.808;2023-02-19T06:00:27;1.70;;;1.60;;
38725;SDS011;24474;48.906;8.808;2023-02-19T06:02:54;2.47;;;1.67;;
38725;SDS011;24474;48.906;8.808;2023-02-19T06:05:21;2.88;;;1.90;;
38725;SDS011;24474;48.906;8.808;2023-02-19T06:07:46;2.88;;;1.90;;
38725;SDS011;24474;48.906;8.808;2023-02-19T06:10:15;2.83;;;1.83;;
38725;SDS011;24474;48.906;8.808;2023-02-19T06:12:43;2.35;;;1.60;;
38725;SDS011;24474;48.906;8.808;2023-02-19T06:15:10;2.17;;;1.77;;
38725;SDS011;24474;48.906;8.808;2023-02-19T06:17:37;1.70;;;1.40;;
38725;SDS011;24474;48.906;8.808;2023-02-19T06:20:04;2.55;;;1.58;;
38725;SDS011;24474;48.906;8.808;2023-02-19T06:22:31;1.70;;;1.60;;
38725;SDS011;24474;48.906;8.808;2023-02-19T06:24:56;1.90;;;1.55;;
38725;SDS011;24474;48.906;8.808;2023-02-19T06:27:24;3.15;;;1.60;;
38725;SDS011;24474;48.906;8.808;2023-02-19T06:29:52;2.05;;;1.60;;
38725;SDS011;24474;48.906;8.808;2023-02-19T06:32:17;4.05;;;2.10;;
38725;SDS011;24474;48.906;8.808;2023-02-19T06:34:44;2.80;;;1.90;;
38725;SDS011;24474;48.906;8.808;2023-02-19T06:37:10;2.13;;;1.92;;
38725;SDS011;24474;48.906;8.808;2023-02-19T06:39:37;2.08;;;1.88;;
38725;SDS011;24474;48.906;8.808;2023-02-19T06:42:03;2.65;;;1.70;;
38725;SDS011;24474;48.906;8.808;2023-02-19T06:44:30;1.92;;;1.65;;
38725;SDS011;24474;48.906;8.808;2023-02-19T06:46:57;2.03;;;1.83;;
38725;SDS011;24474;48.906;8.808;2023-02-19T06:49:24;3.08;;;1.70;;
38725;SDS011;24474;48.906;8.808;2023-02-19T06:51:51;1.77;;;1.60;;
38725;SDS011;24474;48.906;8.808;2023-02-19T06:54:16;2.33;;;1.67;;
38725;SDS011;24474;48.906;8.808;2023-02-19T06:56:43;2.15;;;1.73;;
38725;SDS011;24474;48.906;8.808;2023-02-19T06:59:11;2.15;;;1.73;;
38725;SDS011;24474;48.906;8.808;2023-02-19T07:01:38;2.42;;;2.00;;
38725;SDS011;24474;48.906;8.808;2023-02-19T07:04:05;3.42;;;2.10;;
38725;SDS011;24474;48.906;8.808;2023-02-19T07:06:35;4.03;;;1.90;;
38725;SDS011;24474;48.906;8.808;2023-02-19T07:09:03;2.80;;;1.88;;
38725;SDS011;24474;48.906;8.808;2023-02-19T07:11:32;2.28;;;1.67;;
38725;SDS011;24474;48.906;8.808;2023-02-19T07:14:00;2.67;;;2.13;;
38725;SDS011;24474;48.906;8.808;2023-02-19T07:16:29;3.00;;;2.05;;
38725;SDS011;24474;48.906;8.808;2023-02-19T07:18:56;2.58;;;1.67;;
38725;SDS011;24474;48.906;8.808;2023-02-19T07:21:24;2.35;;;1.83;;
38725;SDS011;24474;48.906;8.808;2023-02-19T07:23:51;1.88;;;1.67;;
38725;SDS011;24474;48.906;8.808;2023-02-19T07:26:19;3.72;;;2.20;;
38725;SDS011;24474;48.906;8.808;2023-02-19T07:28:46;1.83;;;1.70;;
38725;SDS011;24474;48.906;8.808;2023-02-19T07:31:15;2.55;;;1.83;;
38725;SDS011;24474;48.906;8.808;2023-02-19T07:33:44;2.70;;;2.13;;
38725;SDS011;24474;48.906;8.808;2023-02-19T07:36:12;2.28;;;1.90;;
38725;SDS011;24474;48.906;8.808;2023-02-19T07:38:40;2.40;;;2.10;;
38725;SDS011;24474;48.906;8.808;2023-02-19T07:41:06;2.53;;;1.90;;
38725;SDS011;24474;48.906;8.808;2023-02-19T07:43:35;3.33;;;1.90;;
38725;SDS011;24474;48.906;8.808;2023-02-19T07:46:13;2.13;;;1.80;;
38725;SDS011;24474;48.906;8.808;2023-02-19T07:48:40;2.47;;;1.98;;
38725;SDS011;24474;48.906;8.808;2023-02-19T07:51:07;3.17;;;1.77;;
38725;SDS011;24474;48.906;8.808;2023-02-19T07:53:36;3.58;;;1.90;;
38725;SDS011;24474;48.906;8.808;2023-02-19T07:56:03;3.78;;;2.25;;
38725;SDS011;24474;48.906;8.808;2023-02-19T07:58:32;4.25;;;3.03;;
38725;SDS011;24474;48.906;8.808;2023-02-19T08:01:07;8.27;;;5.32;;
38725;SDS011;24474;48.906;8.808;2023-02-19T08:03:40;5.05;;;3.50;;
38725;SDS011;24474;48.906;8.808;2023-02-19T08:06:07;2.35;;;1.60;;
38725;SDS011;24474;48.906;8.808;2023-02-19T08:08:36;1.77;;;1.40;;
38725;SDS011;24474;48.906;8.808;2023-02-19T08:11:05;3.85;;;1.25;;
38725;SDS011;24474;48.906;8.808;2023-02-19T08:14:01;1.80;;;1.50;;
38725;SDS011;24474;48.906;8.808;2023-02-19T08:16:28;1.38;;;1.25;;
38725;SDS011;24474;48.906;8.808;2023-02-19T08:18:54;1.30;;;1.20;;
38725;SDS011;24474;48.906;8.808;2023-02-19T08:21:22;1.80;;;1.20;;
38725;SDS011;24474;48.906;8.808;2023-02-19T08:23:48;1.55;;;1.40;;
38725;SDS011;24474;48.906;8.808;2023-02-19T08:26:15;1.80;;;1.52;;
38725;SDS011;24474;48.906;8.808;2023-02-19T08:28:41;2.70;;;1.70;;
38725;SDS011;24474;48.906;8.808;2023-02-19T08:31:07;1.95;;;1.50;;
38725;SDS011;24474;48.906;8.808;2023-02-19T08:33:36;3.17;;;1.60;;
38725;SDS011;24474;48.906;8.808;2023-02-19T08:36:03;2.47;;;1.52;;
38725;SDS011;24474;48.906;8.808;2023-02-19T08:38:31;1.88;;;1.63;;
38725;SDS011;24474;48.906;8.808;2023-02-19T08:41:02;2.33;;;1.63;;
38725;SDS011;24474;48.906;8.808;2023-02-19T08:43:28;4.30;;;2.13;;
38725;SDS011;24474;48.906;8.808;2023-02-19T08:45:55;3.88;;;2.30;;
38725;SDS011;24474;48.906;8.808;2023-02-19T08:48:22;4.75;;;2.00;;
38725;SDS011;24474;48.906;8.808;2023-02-19T08:50:54;3.33;;;1.75;;
38725;SDS011;24474;48.906;8.808;2023-02-19T08:53:23;2.97;;;2.10;;
38725;SDS011;24474;48.906;8.808;2023-02-19T08:55:51;2.75;;;2.08;;
38725;SDS011;24474;48.906;8.808;2023-02-19T08:58:18;3.10;;;2.20;;
38725;SDS011;24474;48.906;8.808;2023-02-19T09:00:45;4.18;;;2.22;;
38725;SDS011;24474;48.906;8.808;2023-02-19T09:03:12;3.65;;;2.35;;
38725;SDS011;24474;48.906;8.808;2023-02-19T09:05:39;4.20;;;2.17;;
38725;SDS011;24474;48.906;8.808;2023-02-19T09:08:07;3.60;;;2.20;;
38725;SDS011;24474;48.906;8.808;2023-02-19T09:10:34;4.90;;;2.30;;
38725;SDS011;24474;48.906;8.808;2023-02-19T09:13:00;4.00;;;2.40;;
38725;SDS011;24474;48.906;8.808;2023-02-19T09:15:28;2.85;;;2.05;;
38725;SDS011;24474;48.906;8.808;2023-02-19T09:17:54;4.47;;;2.05;;
38725;SDS011;24474;48.906;8.808;2023-02-19T09:20:21;4.35;;;1.85;;
38725;SDS011;24474;48.906;8.808;2023-02-19T09:22:46;3.85;;;2.20;;
38725;SDS011;24474;48.906;8.808;2023-02-19T09:25:13;6.63;;;2.03;;
38725;SDS011;24474;48.906;8.808;2023-02-19T09:27:40;5.03;;;2.22;;
38725;SDS011;24474;48.906;8.808;2023-02-19T09:30:07;6.00;;;2.33;;
38725;SDS011;24474;48.906;8.808;2023-02-19T09:32:35;5.88;;;2.00;;
38725;SDS011;24474;48.906;8.808;2023-02-19T09:35:01;4.97;;;3.05;;
38725;SDS011;24474;48.906;8.808;2023-02-19T09:37:28;2.72;;;1.80;;
38725;SDS011;24474;48.906;8.808;2023-02-19T09:39:54;3.72;;;1.90;;
38725;SDS011;24474;48.906;8.808;2023-02-19T09:42:22;6.15;;;2.70;;
38725;SDS011;24474;48.906;8.808;2023-02-19T09:47:20;11.75;;;6.40;;
38725;SDS011;24474;48.906;8.808;2023-02-19T09:49:52;7.03;;;3.20;;
38725;SDS011;24474;48.906;8.808;2023-02-19T09:58:26;4.00;;;2.15;;
38725;SDS011;24474;48.906;8.808;2023-02-19T10:00:52;3.28;;;1.77;;
38725;SDS011;24474;48.906;8.808;2023-02-19T10:03:25;4.93;;;2.42;;
38725;SDS011;24474;48.906;8.808;2023-02-19T10:06:01;2.92;;;2.08;;
38725;SDS011;24474;48.906;8.808;2023-02-19T10:08:33;3.42;;;2.03;;
38725;SDS011;24474;48.906;8.808;2023-02-19T10:11:00;3.22;;;1.90;;
38725;SDS011;24474;48.906;8.808;2023-02-19T10:13:34;3.30;;;2.10;;
38725;SDS011;24474;48.906;8.808;2023-02-19T10:16:25;4.55;;;2.03;;
38725;SDS011;24474;48.906;8.808;2023-02-19T10:18:54;2.25;;;1.90;;
38725;SDS011;24474;48.906;8.808;2023-02-19T10:21:25;4.68;;;2.10;;
38725;SDS011;24474;48.906;8.808;2023-02-19T10:23:54;4.65;;;2.33;;
38725;SDS011;24474;48.906;8.808;2023-02-19T10:26:28;3.42;;;2.05;;
38725;SDS011;24474;48.906;8.808;2023-02-19T10:29:00;4.28;;;2.10;;
38725;SDS011;24474;48.906;8.808;2023-02-19T10:31:29;3.95;;;1.80;;
38725;SDS011;24474;48.906;8.808;2023-02-19T10:33:58;4.68;;;2.35;;
38725;SDS011;24474;48.906;8.808;2023-02-19T10:36:27;3.03;;;2.08;;
38725;SDS011;24474;48.906;8.808;2023-02-19T10:39:00;3.95;;;1.80;;
38725;SDS011;24474;48.906;8.808;2023-02-19T10:41:29;5.82;;;2.00;;
38725;SDS011;24474;48.906;8.808;2023-02-19T10:44:08;3.58;;;1.88;;
38725;SDS011;24474;48.906;8.808;2023-02-19T10:46:44;3.63;;;1.70;;
38725;SDS011;24474;48.906;8.808;2023-02-19T10:52:26;3.65;;;2.30;;
38725;SDS011;24474;48.906;8.808;2023-02-19T10:54:56;3.60;;;2.10;;
38725;SDS011;24474;48.906;8.808;2023-02-19T10:57:46;5.83;;;2.87;;
38725;SDS011;24474;48.906;8.808;2023-02-19T11:00:18;4.88;;;2.42;;
38725;SDS011;24474;48.906;8.808;2023-02-19T11:03:11;4.32;;;1.90;;
38725;SDS011;24474;48.906;8.808;2023-02-19T11:05:58;3.08;;;1.80;;
38725;SDS011;24474;48.906;8.808;2023-02-19T11:08:27;3.20;;;1.90;;
38725;SDS011;24474;48.906;8.808;2023-02-19T11:10:55;6.18;;;3.13;;
38725;SDS011;24474;48.906;8.808;2023-02-19T11:13:28;6.93;;;2.53;;
38725;SDS011;24474;48.906;8.808;2023-02-19T11:15:57;3.88;;;2.40;;
38725;SDS011;24474;48.906;8.808;2023-02-19T11:18:25;2.88;;;2.00;;
38725;SDS011;24474;48.906;8.808;2023-02-19T11:20:54;3.58;;;1.90;;
38725;SDS011;24474;48.906;8.808;2023-02-19T11:23:36;4.93;;;2.13;;
38725;SDS011;24474;48.906;8.808;2023-02-19T11:26:21;3.80;;;2.17;;
38725;SDS011;24474;48.906;8.808;2023-02-19T11:28:58;4.32;;;2.10;;
38725;SDS011;24474;48.906;8.808;2023-02-19T11:31:29;4.38;;;1.88;;
38725;SDS011;24474;48.906;8.808;2023-02-19T11:34:01;4.95;;;2.53;;
38725;SDS011;24474;48.906;8.808;2023-02-19T11:37:06;6.82;;;2.17;;
38725;SDS011;24474;48.906;8.808;2023-02-19T11:39:36;6.63;;;3.78;;
38725;SDS011;24474;48.906;8.808;2023-02-19T11:45:25;3.30;;;2.00;;
38725;SDS011;24474;48.906;8.808;2023-02-19T11:57:17;3.47;;;1.60;;
38725;SDS011;24474;48.906;8.808;2023-02-19T12:14:23;6.72;;;2.78;;
38725;SDS011;24474;48.906;8.808;2023-02-19T12:20:26;6.82;;;1.95;;
38725;SDS011;24474;48.906;8.808;2023-02-19T12:38:29;4.05;;;1.80;;
38725;SDS011;24474;48.906;8.808;2023-02-19T12:41:27;4.95;;;2.10;;
38725;SDS011;24474;48.906;8.808;2023-02-19T12:43:59;7.00;;;2.15;;
38725;SDS011;24474;48.906;8.808;2023-02-19T12:46:34;6.75;;;2.70;;
38725;SDS011;24474;48.906;8.808;2023-02-19T12:52:06;5.45;;;1.92;;
38725;SDS011;24474;48.906;8.808;2023-02-19T12:54:37;5.50;;;2.80;;
38725;SDS011;24474;48.906;8.808;2023-02-19T12:57:26;6.85;;;2.45;;
38725;SDS011;24474;48.906;8.808;2023-02-19T13:03:11;5.68;;;2.00;;
38725;SDS011;24474;48.906;8.808;2023-02-19T13:06:18;8.25;;;1.92;;
38725;SDS011;24474;48.906;8.808;2023-02-19T13:09:23;3.22;;;1.80;;
38725;SDS011;24474;48.906;8.808;2023-02-19T13:12:03;3.20;;;1.73;;
38725;SDS011;24474;48.906;8.808;2023-02-19T13:14:37;5.10;;;1.75;;
38725;SDS011;24474;48.906;8.808;2023-02-19T13:17:51;3.50;;;1.60;;
38725;SDS011;24474;48.906;8.808;2023-02-19T13:23:15;4.80;;;1.80;;
38725;SDS011;24474;48.906;8.808;2023-02-19T13:37:53;5.05;;;2.10;;
38725;SDS011;24474;48.906;8.808;2023-02-19T13:40:31;11.05;;;5.35;;
38725;SDS011;24474;48.906;8.808;2023-02-19T13:43:06;8.52;;;3.90;;
38725;SDS011;24474;48.906;8.808;2023-02-19T13:46:12;5.70;;;2.22;;
38725;SDS011;24474;48.906;8.808;2023-02-19T13:48:42;4.25;;;1.67;;
38725;SDS011;24474;48.906;8.808;2023-02-19T13:59:44;3.25;;;1.40;;
38725;SDS011;24474;48.906;8.808;2023-02-19T14:10:01;5.63;;;1.35;;
38725;SDS011;24474;48.906;8.808;2023-02-19T14:12:31;3.88;;;1.45;;
38725;SDS011;24474;48.906;8.808;2023-02-19T14:21:13;6.85;;;1.80;;
38725;SDS011;24474;48.906;8.808;2023-02-19T14:24:00;4.32;;;1.70;;
38725;SDS011;24474;48.906;8.808;2023-02-19T14:26:29;3.00;;;1.50;;
38725;SDS011;24474;48.906;8.808;2023-02-19T14:29:02;5.55;;;1.60;;
38725;SDS011;24474;48.906;8.808;2023-02-19T14:31:42;5.22;;;1.85;;
38725;SDS011;24474;48.906;8.808;2023-02-19T14:34:19;5.65;;;1.90;;
38725;SDS011;24474;48.906;8.808;2023-02-19T14:36:54;3.63;;;1.67;;
38725;SDS011;24474;48.906;8.808;2023-02-19T14:39:32;5.47;;;1.98;;
38725;SDS011;24474;48.906;8.808;2023-02-19T14:42:11;6.68;;;1.85;;
38725;SDS011;24474;48.906;8.808;2023-02-19T14:44:49;6.93;;;2.30;;
38725;SDS011;24474;48.906;8.808;2023-02-19T14:47:23;5.88;;;2.08;;
38725;SDS011;24474;48.906;8.808;2023-02-19T14:49:58;6.18;;;1.98;;
38725;SDS011;24474;48.906;8.808;2023-02-19T14:52:25;6.50;;;2.45;;
38725;SDS011;24474;48.906;8.808;2023-02-19T14:55:13;4.10;;;2.00;;
38725;SDS011;24474;48.906;8.808;2023-02-19T14:57:55;5.75;;;2.15;;
38725;SDS011;24474;48.906;8.808;2023-02-19T15:00:26;6.28;;;2.03;;
38725;SDS011;24474;48.906;8.808;2023-02-19T15:02:55;6.22;;;1.95;;
38725;SDS011;24474;48.906;8.808;2023-02-19T15:05:28;6.32;;;2.28;;
38725;SDS011;24474;48.906;8.808;2023-02-19T15:07:56;4.78;;;2.20;;
38725;SDS011;24474;48.906;8.808;2023-02-19T15:10:29;4.78;;;2.10;;
38725;SDS011;24474;48.906;8.808;2023-02-19T15:12:57;8.02;;;2.53;;
38725;SDS011;24474;48.906;8.808;2023-02-19T15:15:30;5.93;;;2.20;;
38725;SDS011;24474;48.906;8.808;2023-02-19T15:18:04;6.78;;;2.20;;
38725;SDS011;24474;48.906;8.808;2023-02-19T15:20:32;5.65;;;2.13;;
38725;SDS011;24474;48.906;8.808;2023-02-19T15:23:01;3.08;;;1.70;;
38725;SDS011;24474;48.906;8.808;2023-02-19T15:25:33;5.63;;;2.30;;
38725;SDS011;24474;48.906;8.808;2023-02-19T15:30:46;5.88;;;2.50;;
38725;SDS011;24474;48.906;8.808;2023-02-19T15:33:17;7.22;;;1.90;;
38725;SDS011;24474;48.906;8.808;2023-02-19T15:35:48;6.63;;;2.10;;
38725;SDS011;24474;48.906;8.808;2023-02-19T15:38:17;4.72;;;2.10;;
38725;SDS011;24474;48.906;8.808;2023-02-19T15:40:43;6.57;;;2.53;;
38725;SDS011;24474;48.906;8.808;2023-02-19T15:43:20;6.15;;;2.53;;
38725;SDS011;24474;48.906;8.808;2023-02-19T15:45:57;6.05;;;2.47;;
38725;SDS011;24474;48.906;8.808;2023-02-19T15:48:37;7.65;;;3.33;;
38725;SDS011;24474;48.906;8.808;2023-02-19T15:51:14;7.05;;;3.60;;
38725;SDS011;24474;48.906;8.808;2023-02-19T15:53:54;5.70;;;2.40;;
38725;SDS011;24474;48.906;8.808;2023-02-19T15:56:31;7.40;;;2.63;;
38725;SDS011;24474;48.906;8.808;2023-02-19T15:59:12;5.32;;;2.30;;
38725;SDS011;24474;48.906;8.808;2023-02-19T16:01:58;7.53;;;2.92;;
38725;SDS011;24474;48.906;8.808;2023-02-19T16:04:29;7.40;;;2.67;;
38725;SDS011;24474;48.906;8.808;2023-02-19T16:07:00;8.00;;;3.10;;
38725;SDS011;24474;48.906;8.808;2023-02-19T16:09:30;6.05;;;2.67;;
38725;SDS011;24474;48.906;8.808;2023-02-19T16:11:59;7.40;;;3.20;;
38725;SDS011;24474;48.906;8.808;2023-02-19T16:14:36;7.03;;;3.30;;
38725;SDS011;24474;48.906;8.808;2023-02-19T16:17:11;6.10;;;2.28;;
38725;SDS011;24474;48.906;8.808;2023-02-19T16:19:49;6.25;;;2.60;;
38725;SDS011;24474;48.906;8.808;2023-02-19T16:24:56;8.05;;;3.10;;
38725;SDS011;24474;48.906;8.808;2023-02-19T16:30:19;9.55;;;2.85;;
38725;SDS011;24474;48.906;8.808;2023-02-19T16:35:53;8.93;;;3.78;;
38725;SDS011;24474;48.906;8.808;2023-02-19T16:38:19;8.65;;;3.60;;
38725;SDS011;24474;48.906;8.808;2023-02-19T16:45:58;8.18;;;3.33;;
38725;SDS011;24474;48.906;8.808;2023-02-19T16:48:26;9.75;;;3.42;;
38725;SDS011;24474;48.906;8.808;2023-02-19T16:50:54;6.25;;;3.30;;
38725;SDS011;24474;48.906;8.808;2023-02-19T16:53:22;8.13;;;3.40;;
38725;SDS011;24474;48.906;8.808;2023-02-19T16:55:50;7.63;;;3.45;;
38725;SDS011;24474;48.906;8.808;2023-02-19T16:58:18;8.55;;;3.50;;
38725;SDS011;24474;48.906;8.808;2023-02-19T17:00:47;8.85;;;3.50;;
38725;SDS011;24474;48.906;8.808;2023-02-19T17:03:14;7.35;;;3.20;;
38725;SDS011;24474;48.906;8.808;2023-02-19T17:05:43;7.15;;;2.70;;
38725;SDS011;24474;48.906;8.808;2023-02-19T17:11:00;8.15;;;3.00;;
38725;SDS011;24474;48.906;8.808;2023-02-19T17:13:28;8.57;;;3.80;;
38725;SDS011;24474;48.906;8.808;2023-02-19T17:15:54;7.97;;;3.22;;
38725;SDS011;24474;48.906;8.808;2023-02-19T17:18:19;6.68;;;2.45;;
38725;SDS011;24474;48.906;8.808;2023-02-19T17:21:07;5.78;;;2.28;;
38725;SDS011;24474;48.906;8.808;2023-02-19T17:23:39;5.57;;;2.40;;
38725;SDS011;24474;48.906;8.808;2023-02-19T17:26:08;7.82;;;3.17;;
38725;SDS011;24474;48.906;8.808;2023-02-19T17:28:44;6.88;;;2.60;;
38725;SDS011;24474;48.906;8.808;2023-02-19T17:31:11;7.72;;;3.13;;
38725;SDS011;24474;48.906;8.808;2023-02-19T17:33:39;6.78;;;3.03;;
38725;SDS011;24474;48.906;8.808;2023-02-19T17:36:07;7.05;;;2.88;;
38725;SDS011;24474;48.906;8.808;2023-02-19T17:38:43;6.57;;;2.63;;
38725;SDS011;24474;48.906;8.808;2023-02-19T17:41:09;9.57;;;3.15;;
38725;SDS011;24474;48.906;8.808;2023-02-19T17:43:36;8.52;;;3.97;;
38725;SDS011;24474;48.906;8.808;2023-02-19T17:46:01;11.57;;;4.13;;
38725;SDS011;24474;48.906;8.808;2023-02-19T17:48:29;10.35;;;5.22;;
38725;SDS011;24474;48.906;8.808;2023-02-19T17:50:55;10.60;;;4.32;;
38725;SDS011;24474;48.906;8.808;2023-02-19T17:53:22;6.88;;;3.90;;